Time;durP1;ratioP1;P1;durP2;ratioP2;P2;SDS_P1;SDS_P2;PMS_P1;PMS_P2;Temp;Humidity;BMP_temperature;BMP_pressure;BME280_temperature;BME280_humidity;BME280_pressure;Samples;Min_cycle;Max_cycle;Signal;HPM_P1;HPM_P2
2023/12/03 00:00:14;;;;;;;22.80;14.55;;;0.80;99.90;;;;;;5037861;28;20045;-79
2023/12/03 00:02:42;;;;;;;26.75;15.10;;;0.80;99.90;;;;;;5033684;28;20451;-80
2023/12/03 00:05:10;;;;;;;26.55;15.85;;;0.80;99.90;;;;;;5050628;28;20052;-80
2023/12/03 00:07:37;;;;;;;26.10;15.48;;;0.70;99.90;;;;;;5035949;28;20049;-79
2023/12/03 00:10:05;;;;;;;29.23;16.13;;;0.70;99.90;;;;;;5050658;28;20072;-81
2023/12/03 00:12:32;;;;;;;22.58;14.23;;;0.70;99.90;;;;;;5047639;28;20044;-81
2023/12/03 00:14:59;;;;;;;25.67;13.25;;;0.60;99.90;;;;;;5051726;28;20044;-79
2023/12/03 00:17:26;;;;;;;22.35;14.75;;;0.60;99.90;;;;;;5050286;28;20698;-79
2023/12/03 00:19:53;;;;;;;25.33;14.80;;;0.50;99.90;;;;;;5050076;28;20053;-81
2023/12/03 00:22:20;;;;;;;23.90;14.43;;;0.60;99.90;;;;;;5035688;28;20045;-81
2023/12/03 00:24:47;;;;;;;23.23;13.90;;;0.60;99.90;;;;;;5053295;28;20091;-79
2023/12/03 00:27:14;;;;;;;24.95;14.45;;;0.60;99.90;;;;;;5025853;28;20103;-80
2023/12/03 00:29:40;;;;;;;21.60;12.65;;;0.60;99.90;;;;;;5050750;28;20052;-82
2023/12/03 00:32:07;;;;;;;23.13;13.40;;;0.60;99.90;;;;;;5047614;28;20104;-79
2023/12/03 00:34:34;;;;;;;22.13;12.93;;;0.60;99.90;;;;;;5047831;28;20091;-80
2023/12/03 00:37:01;;;;;;;21.58;12.07;;;0.50;99.90;;;;;;5048586;28;20052;-81
2023/12/03 00:39:27;;;;;;;22.45;13.32;;;0.50;99.90;;;;;;5050125;28;20103;-80
2023/12/03 00:41:54;;;;;;;20.75;12.07;;;0.50;99.90;;;;;;5048382;28;20296;-81
2023/12/03 00:44:21;;;;;;;20.25;12.48;;;0.50;99.90;;;;;;5036865;28;20057;-82
2023/12/03 00:46:49;;;;;;;21.15;12.50;;;0.50;99.90;;;;;;5052098;28;20140;-79
2023/12/03 00:49:15;;;;;;;20.02;12.32;;;0.50;99.90;;;;;;5034893;28;20041;-79
2023/12/03 00:51:42;;;;;;;21.23;13.20;;;0.50;99.90;;;;;;5031779;28;20037;-80
2023/12/03 00:54:09;;;;;;;19.25;12.48;;;0.50;99.90;;;;;;5024631;28;20521;-83
2023/12/03 00:56:36;;;;;;;19.95;12.73;;;0.40;99.90;;;;;;5035156;28;20579;-81
2023/12/03 00:59:03;;;;;;;22.42;12.57;;;0.40;99.90;;;;;;5051263;28;20049;-78
2023/12/03 01:01:29;;;;;;;24.58;13.02;;;0.30;99.90;;;;;;5035848;28;20119;-79
2023/12/03 01:03:56;;;;;;;23.48;12.60;;;0.40;99.90;;;;;;5045185;28;20049;-80
2023/12/03 01:06:23;;;;;;;19.23;11.80;;;0.40;99.90;;;;;;5048815;28;20107;-79
2023/12/03 01:08:50;;;;;;;19.73;11.85;;;0.30;99.90;;;;;;5029734;28;20136;-81
2023/12/03 01:11:16;;;;;;;21.85;11.82;;;0.20;99.90;;;;;;5046652;28;20045;-80
2023/12/03 01:14:02;;;;;;;20.10;11.82;;;0.20;99.90;;;;;;5048021;28;20068;-80
2023/12/03 01:16:29;;;;;;;22.15;12.77;;;0.20;99.90;;;;;;5036126;28;20049;-80
2023/12/03 01:18:56;;;;;;;21.45;12.02;;;0.20;99.90;;;;;;5050092;28;20049;-83
2023/12/03 01:21:23;;;;;;;19.98;12.27;;;0.20;99.90;;;;;;5027122;28;21819;-80
2023/12/03 01:23:50;;;;;;;20.52;11.82;;;0.10;99.90;;;;;;5052505;28;20056;-79
2023/12/03 01:26:16;;;;;;;20.38;11.95;;;0.10;99.90;;;;;;5044528;28;20038;-82
2023/12/03 01:28:43;;;;;;;19.63;10.68;;;0.20;99.90;;;;;;5048373;28;20071;-80
2023/12/03 01:31:10;;;;;;;20.15;11.65;;;0.10;99.90;;;;;;5051703;28;20044;-80
2023/12/03 01:33:36;;;;;;;17.58;10.65;;;0.10;99.90;;;;;;5050756;28;20221;-79
2023/12/03 01:36:03;;;;;;;18.25;10.95;;;0.10;99.90;;;;;;5048567;28;20045;-81
2023/12/03 01:38:30;;;;;;;21.83;12.18;;;0.10;99.90;;;;;;5051426;28;20048;-80
2023/12/03 01:40:57;;;;;;;19.30;11.45;;;0.10;99.90;;;;;;5047288;28;20049;-82
2023/12/03 01:43:23;;;;;;;16.92;9.85;;;0.10;99.90;;;;;;5028680;28;20453;-80
2023/12/03 01:45:51;;;;;;;19.58;11.55;;;0.10;99.90;;;;;;5048964;28;20041;-82
2023/12/03 01:48:18;;;;;;;19.23;11.57;;;0.10;99.90;;;;;;5026507;28;20117;-80
2023/12/03 01:50:45;;;;;;;19.67;11.00;;;0.00;99.90;;;;;;5045526;28;20048;-80
2023/12/03 01:53:12;;;;;;;18.92;11.00;;;0.00;99.90;;;;;;5049605;28;20104;-81
2023/12/03 01:55:40;;;;;;;21.80;12.40;;;0.00;99.90;;;;;;5032521;28;20056;-81
2023/12/03 01:58:07;;;;;;;17.50;10.90;;;-0.10;99.90;;;;;;5046190;28;20049;-80
2023/12/03 02:00:34;;;;;;;21.02;12.25;;;-0.10;99.90;;;;;;5035559;28;20084;-80
2023/12/03 02:03:04;;;;;;;20.38;12.15;;;-0.10;99.90;;;;;;5028333;28;20562;-81
2023/12/03 02:05:31;;;;;;;18.20;11.23;;;-0.20;99.90;;;;;;5051262;28;20060;-80
2023/12/03 02:07:59;;;;;;;18.67;10.48;;;-0.20;99.90;;;;;;5028508;28;20124;-81
2023/12/03 02:10:26;;;;;;;18.92;11.13;;;-0.30;99.90;;;;;;5052043;28;20113;-82
2023/12/03 02:12:53;;;;;;;20.00;11.38;;;-0.30;99.90;;;;;;5049082;28;20045;-78
2023/12/03 02:15:20;;;;;;;18.00;11.75;;;-0.30;99.90;;;;;;5051813;28;20099;-82
2023/12/03 02:17:47;;;;;;;19.83;11.02;;;-0.30;99.90;;;;;;5032666;28;20045;-80
2023/12/03 02:20:13;;;;;;;18.80;11.00;;;-0.40;99.90;;;;;;5055529;28;20390;-80
2023/12/03 02:22:59;;;;;;;16.70;10.07;;;-0.40;99.90;;;;;;5033242;28;20401;-81
2023/12/03 02:25:26;;;;;;;14.35;9.77;;;-0.50;99.90;;;;;;5053648;28;20050;-80
2023/12/03 02:27:53;;;;;;;15.57;9.57;;;-0.50;99.90;;;;;;5031164;28;20503;-80
2023/12/03 02:30:20;;;;;;;14.57;8.85;;;-0.50;99.90;;;;;;5024348;28;20104;-79
2023/12/03 02:32:48;;;;;;;13.43;8.02;;;-0.60;99.90;;;;;;5049888;28;20041;-81
2023/12/03 02:35:15;;;;;;;14.35;8.50;;;-0.60;99.90;;;;;;5050159;28;20046;-80
2023/12/03 02:37:42;;;;;;;15.77;8.68;;;-0.60;99.90;;;;;;5050150;28;20053;-80
2023/12/03 02:40:09;;;;;;;13.02;7.53;;;-0.60;99.90;;;;;;5026476;28;20055;-78
2023/12/03 02:42:35;;;;;;;13.25;7.75;;;-0.70;99.90;;;;;;5049160;28;20053;-80
2023/12/03 02:45:03;;;;;;;13.00;7.30;;;-0.70;99.90;;;;;;5046458;28;20041;-81
2023/12/03 02:47:30;;;;;;;11.75;7.47;;;-0.80;99.90;;;;;;5047592;28;20049;-79
2023/12/03 02:49:56;;;;;;;13.80;7.80;;;-0.80;99.90;;;;;;5028527;28;20049;-80
2023/12/03 02:52:23;;;;;;;13.48;7.80;;;-0.80;99.90;;;;;;5054157;28;20403;-81
2023/12/03 02:54:50;;;;;;;15.27;7.57;;;-0.90;99.90;;;;;;5021489;28;20068;-82
2023/12/03 02:57:17;;;;;;;12.20;6.93;;;-0.90;99.90;;;;;;5031709;28;20516;-82
2023/12/03 02:59:43;;;;;;;10.43;6.97;;;-1.10;99.90;;;;;;5052389;28;20065;-78
2023/12/03 03:02:10;;;;;;;12.38;7.85;;;-1.10;99.90;;;;;;5058404;28;20076;-80
2023/12/03 03:04:37;;;;;;;13.20;7.60;;;-1.10;99.90;;;;;;5056872;28;20046;-82
2023/12/03 03:07:04;;;;;;;14.88;7.82;;;-1.10;99.90;;;;;;5049406;28;20055;-81
2023/12/03 03:09:30;;;;;;;13.95;7.65;;;-1.10;99.90;;;;;;5051826;28;20045;-82
2023/12/03 03:11:57;;;;;;;11.88;7.78;;;-1.20;99.90;;;;;;5051495;28;20049;-80
2023/12/03 03:14:24;;;;;;;13.38;7.60;;;-1.20;99.90;;;;;;5053143;28;20470;-81
2023/12/03 03:16:51;;;;;;;13.60;7.38;;;-1.20;99.90;;;;;;5050121;28;20045;-81
2023/12/03 03:19:18;;;;;;;10.80;7.35;;;-1.20;99.90;;;;;;5052536;28;20044;-80
2023/12/03 03:21:44;;;;;;;12.30;7.45;;;-1.20;99.90;;;;;;5048931;28;20044;-82
2023/12/03 03:24:12;;;;;;;12.05;7.68;;;-1.30;99.90;;;;;;5052795;28;20040;-80
2023/12/03 03:26:38;;;;;;;14.38;7.90;;;-1.30;99.90;;;;;;5046693;28;20049;-82
2023/12/03 03:29:08;;;;;;;10.68;6.90;;;-1.30;99.90;;;;;;5051925;28;20091;-82
2023/12/03 03:31:35;;;;;;;14.73;7.95;;;-1.30;99.90;;;;;;5052290;28;20111;-82
2023/12/03 03:34:03;;;;;;;10.65;7.20;;;-1.30;99.90;;;;;;5050802;28;20063;-81
2023/12/03 03:36:29;;;;;;;12.02;7.50;;;-1.40;99.90;;;;;;5047975;28;20057;-82
2023/12/03 03:38:56;;;;;;;12.27;7.70;;;-1.40;99.90;;;;;;5050394;28;20128;-80
2023/12/03 03:41:23;;;;;;;14.23;8.18;;;-1.40;99.90;;;;;;5050338;28;20114;-82
2023/12/03 03:43:50;;;;;;;12.23;7.95;;;-1.40;99.90;;;;;;5048651;28;20505;-82
2023/12/03 03:46:16;;;;;;;13.30;8.00;;;-1.40;99.90;;;;;;5049522;28;20048;-80
2023/12/03 03:48:43;;;;;;;14.60;7.85;;;-1.40;99.90;;;;;;5048668;28;20045;-81
2023/12/03 03:51:10;;;;;;;12.30;7.40;;;-1.40;99.90;;;;;;5051804;28;20064;-81
2023/12/03 03:53:37;;;;;;;14.18;7.85;;;-1.50;99.90;;;;;;5047763;28;20069;-81
2023/12/03 03:56:08;;;;;;;14.38;7.68;;;-1.50;99.90;;;;;;5052793;28;20468;-82
2023/12/03 03:58:38;;;;;;;14.23;7.75;;;-1.50;99.90;;;;;;5050596;28;20072;-81
2023/12/03 04:01:08;;;;;;;12.85;7.90;;;-1.50;99.90;;;;;;5033624;28;20588;-81
2023/12/03 04:03:35;;;;;;;15.15;8.43;;;-1.50;99.90;;;;;;5039980;28;20071;-80
2023/12/03 04:06:06;;;;;;;15.93;7.95;;;-1.60;99.90;;;;;;5034437;28;20459;-80
2023/12/03 04:08:33;;;;;;;14.73;8.10;;;-1.60;99.90;;;;;;5036869;28;20046;-80
2023/12/03 04:11:04;;;;;;;14.05;8.55;;;-1.60;99.90;;;;;;5053874;28;20060;-80
2023/12/03 04:13:31;;;;;;;15.30;8.63;;;-1.60;99.90;;;;;;5047723;28;20048;-82
2023/12/03 04:15:58;;;;;;;13.35;7.65;;;-1.60;99.90;;;;;;5049211;28;20049;-82
2023/12/03 04:18:24;;;;;;;13.70;8.55;;;-1.60;99.90;;;;;;5034366;28;20098;-82
2023/12/03 04:20:52;;;;;;;14.50;8.48;;;-1.70;99.90;;;;;;5045838;28;20099;-79
2023/12/03 04:23:18;;;;;;;14.00;8.55;;;-1.70;99.90;;;;;;5051960;28;20067;-79
2023/12/03 04:25:45;;;;;;;14.63;7.55;;;-1.70;99.90;;;;;;5048778;28;20111;-81
2023/12/03 04:28:12;;;;;;;19.25;8.38;;;-1.70;99.90;;;;;;5051540;28;20075;-80
2023/12/03 04:30:39;;;;;;;15.38;8.55;;;-1.70;99.90;;;;;;5048008;28;20041;-79
2023/12/03 04:33:05;;;;;;;15.15;8.23;;;-1.70;99.90;;;;;;5050933;28;20076;-81
2023/12/03 04:35:32;;;;;;;16.67;9.75;;;-1.80;99.90;;;;;;5047556;28;20527;-80
2023/12/03 04:37:59;;;;;;;13.32;7.90;;;-1.80;99.90;;;;;;5051723;28;20095;-78
2023/12/03 04:40:25;;;;;;;18.13;8.95;;;-1.80;99.90;;;;;;5048669;28;20073;-82
2023/12/03 04:42:52;;;;;;;15.07;8.93;;;-1.80;99.90;;;;;;5045383;28;20045;-80
2023/12/03 04:45:19;;;;;;;14.95;8.45;;;-1.80;99.90;;;;;;5029099;28;20076;-82
2023/12/03 04:47:46;;;;;;;15.73;8.80;;;-1.80;99.90;;;;;;5048455;28;20125;-80
2023/12/03 04:50:13;;;;;;;17.25;8.90;;;-1.90;99.90;;;;;;5055211;28;20084;-79
2023/12/03 04:52:39;;;;;;;15.88;8.07;;;-1.90;99.90;;;;;;5046540;28;20180;-80
2023/12/03 04:55:07;;;;;;;13.15;8.35;;;-1.90;99.90;;;;;;5031370;28;20075;-82
2023/12/03 04:57:33;;;;;;;13.68;7.75;;;-1.90;99.90;;;;;;5027506;28;20054;-80
2023/12/03 05:00:00;;;;;;;14.27;9.15;;;-1.90;99.90;;;;;;5051772;28;20080;-81
2023/12/03 05:02:27;;;;;;;18.40;9.15;;;-2.00;99.90;;;;;;5048820;28;20045;-82
2023/12/03 05:04:54;;;;;;;17.55;9.90;;;-2.00;99.90;;;;;;5044785;28;20193;-80
2023/12/03 05:07:20;;;;;;;18.38;8.85;;;-2.00;99.90;;;;;;5048210;28;20045;-82
2023/12/03 05:09:47;;;;;;;15.98;9.10;;;-2.00;99.90;;;;;;5043721;28;20505;-82
2023/12/03 05:12:14;;;;;;;14.30;8.73;;;-2.00;99.90;;;;;;5036952;28;20124;-80
2023/12/03 05:14:41;;;;;;;17.65;9.40;;;-2.00;99.90;;;;;;5028118;28;20525;-81
2023/12/03 05:17:08;;;;;;;17.75;8.93;;;-2.00;99.90;;;;;;5046634;28;20049;-79
2023/12/03 05:19:34;;;;;;;16.98;8.80;;;-2.10;99.90;;;;;;5026768;28;20410;-80
2023/12/03 05:22:01;;;;;;;16.30;9.00;;;-2.10;99.90;;;;;;5053315;28;20049;-80
2023/12/03 05:24:28;;;;;;;16.38;8.40;;;-2.10;99.90;;;;;;5046538;28;20041;-81
2023/12/03 05:26:55;;;;;;;16.92;8.35;;;-2.10;99.90;;;;;;5048724;28;20076;-82
2023/12/03 05:29:22;;;;;;;15.30;8.95;;;-2.10;99.90;;;;;;5046810;28;20056;-82
2023/12/03 05:31:48;;;;;;;14.40;8.65;;;-2.10;99.90;;;;;;5051386;28;20128;-80
2023/12/03 05:34:15;;;;;;;17.67;8.95;;;-2.10;99.90;;;;;;5029470;28;20049;-81
2023/12/03 05:36:42;;;;;;;14.77;8.00;;;-2.10;99.90;;;;;;5048885;28;20045;-79
2023/12/03 05:39:09;;;;;;;16.67;8.70;;;-2.20;99.90;;;;;;5045036;28;20041;-79
2023/12/03 05:41:39;;;;;;;16.88;8.63;;;-2.20;99.90;;;;;;5047817;28;20049;-82
2023/12/03 05:44:06;;;;;;;15.48;9.02;;;-2.20;99.90;;;;;;5042434;28;20048;-80
2023/12/03 05:46:32;;;;;;;14.75;8.32;;;-2.20;99.90;;;;;;5048782;28;20115;-80
2023/12/03 05:49:00;;;;;;;17.30;9.35;;;-2.20;99.90;;;;;;5048421;28;20041;-80
2023/12/03 05:51:27;;;;;;;14.70;8.50;;;-2.20;99.90;;;;;;5051996;28;20163;-82
2023/12/03 05:53:53;;;;;;;15.52;8.25;;;-2.30;99.90;;;;;;5048939;28;20053;-82
2023/12/03 05:56:20;;;;;;;18.10;9.20;;;-2.30;99.90;;;;;;5047260;28;20052;-81
2023/12/03 05:58:47;;;;;;;18.73;9.20;;;-2.30;99.90;;;;;;5047550;28;20073;-81
2023/12/03 06:01:22;;;;;;;28.05;14.23;;;-2.30;99.90;;;;;;5047391;28;20061;-81
2023/12/03 06:03:49;;;;;;;33.63;14.40;;;-2.30;99.90;;;;;;5050686;28;20049;-81
2023/12/03 06:06:16;;;;;;;26.50;12.35;;;-2.30;99.90;;;;;;5037453;28;20049;-79
2023/12/03 06:08:44;;;;;;;26.20;12.23;;;-2.30;99.90;;;;;;5052780;28;20053;-81
2023/12/03 06:11:11;;;;;;;24.75;13.57;;;-2.40;99.90;;;;;;5041571;28;20115;-81
2023/12/03 06:13:38;;;;;;;25.35;12.13;;;-2.40;99.90;;;;;;5047378;28;20045;-82
2023/12/03 06:16:05;;;;;;;25.65;11.98;;;-2.40;99.90;;;;;;5046567;28;20057;-79
2023/12/03 06:18:32;;;;;;;25.08;12.10;;;-2.40;99.90;;;;;;5030052;28;20084;-78
2023/12/03 06:20:58;;;;;;;25.60;11.80;;;-2.40;99.90;;;;;;5034027;28;20037;-80
2023/12/03 06:23:26;;;;;;;21.67;10.30;;;-2.40;99.90;;;;;;5049489;28;20416;-82
2023/12/03 06:25:52;;;;;;;21.02;10.80;;;-2.40;99.90;;;;;;5050559;28;20046;-80
2023/12/03 06:28:19;;;;;;;21.17;11.05;;;-2.40;99.90;;;;;;5052535;28;20049;-82
2023/12/03 06:30:47;;;;;;;20.90;10.68;;;-2.50;99.90;;;;;;5049706;28;20453;-80
2023/12/03 06:33:15;;;;;;;24.58;11.85;;;-2.50;99.90;;;;;;5052677;28;20049;-79
2023/12/03 06:35:45;;;;;;;23.52;10.65;;;-2.50;99.90;;;;;;5048999;28;20508;-79
2023/12/03 06:38:12;;;;;;;19.33;10.23;;;-2.50;99.90;;;;;;5048978;28;20463;-80
2023/12/03 06:40:39;;;;;;;17.48;9.32;;;-2.50;99.90;;;;;;5050980;28;20080;-79
2023/12/03 06:43:06;;;;;;;14.55;8.18;;;-2.50;99.90;;;;;;5050560;28;20044;-78
2023/12/03 06:45:32;;;;;;;15.65;8.52;;;-2.60;99.90;;;;;;5050844;28;20057;-82
2023/12/03 06:47:59;;;;;;;15.70;8.70;;;-2.60;99.90;;;;;;5048745;28;20040;-81
2023/12/03 06:50:26;;;;;;;15.75;8.65;;;-2.60;99.90;;;;;;5054526;28;20048;-80
2023/12/03 06:52:53;;;;;;;15.57;8.20;;;-2.60;99.90;;;;;;5038074;28;20113;-80
2023/12/03 06:55:19;;;;;;;14.77;8.13;;;-2.60;99.90;;;;;;5052919;28;20114;-81
2023/12/03 06:57:46;;;;;;;13.75;7.70;;;-2.60;99.90;;;;;;5048497;28;20468;-80
2023/12/03 07:00:13;;;;;;;16.92;8.35;;;-2.60;99.90;;;;;;5051981;28;20055;-79
2023/12/03 07:02:40;;;;;;;13.98;8.98;;;-2.60;99.90;;;;;;5045352;28;20136;-80
2023/12/03 07:05:07;;;;;;;15.10;8.45;;;-2.60;99.90;;;;;;5054763;28;20055;-81
2023/12/03 07:07:34;;;;;;;16.98;8.18;;;-2.60;99.90;;;;;;5030603;28;20106;-80
2023/12/03 07:10:00;;;;;;;13.50;7.70;;;-2.60;99.90;;;;;;5050131;28;20045;-79
2023/12/03 07:12:27;;;;;;;14.95;7.70;;;-2.60;99.90;;;;;;5051679;28;20378;-81
2023/12/03 07:14:54;;;;;;;14.77;8.02;;;-2.60;99.90;;;;;;5048970;28;20060;-79
2023/12/03 07:17:21;;;;;;;14.48;8.23;;;-2.60;99.90;;;;;;5050709;28;20053;-80
2023/12/03 07:19:48;;;;;;;16.20;9.18;;;-2.70;99.90;;;;;;5045396;28;20060;-81
2023/12/03 07:22:14;;;;;;;16.75;9.35;;;-2.70;99.90;;;;;;5055066;28;20554;-80
2023/12/03 07:24:42;;;;;;;14.60;8.15;;;-2.70;99.90;;;;;;5048398;28;20551;-83
2023/12/03 07:27:09;;;;;;;16.05;8.68;;;-2.70;99.90;;;;;;5051480;28;20043;-78
2023/12/03 07:29:36;;;;;;;16.52;8.55;;;-2.70;99.90;;;;;;5048987;28;20500;-79
2023/12/03 07:32:03;;;;;;;17.77;9.82;;;-2.70;99.90;;;;;;5051670;28;20107;-78
2023/12/03 07:34:30;;;;;;;14.77;8.85;;;-2.70;99.90;;;;;;5048550;28;20401;-81
2023/12/03 07:36:56;;;;;;;13.43;7.78;;;-2.70;99.90;;;;;;5029188;28;20049;-79
2023/12/03 07:39:24;;;;;;;12.10;8.00;;;-2.70;99.90;;;;;;5051979;28;20081;-79
2023/12/03 07:41:51;;;;;;;16.67;9.45;;;-2.70;99.90;;;;;;5027962;28;20053;-78
2023/12/03 07:44:19;;;;;;;13.25;8.40;;;-2.70;99.90;;;;;;5052697;28;20473;-81
2023/12/03 07:46:46;;;;;;;17.25;8.90;;;-2.70;99.90;;;;;;5050871;28;20041;-79
2023/12/03 07:49:12;;;;;;;17.55;9.38;;;-2.70;99.90;;;;;;5050747;28;20044;-79
2023/12/03 07:51:39;;;;;;;13.45;8.00;;;-2.70;99.90;;;;;;5046835;28;20056;-79
2023/12/03 07:54:06;;;;;;;19.33;10.25;;;-2.70;99.90;;;;;;5045731;28;20049;-79
2023/12/03 07:56:37;;;;;;;19.85;12.13;;;-2.60;99.90;;;;;;5028581;28;20053;-81
2023/12/03 07:59:04;;;;;;;21.40;11.73;;;-2.60;99.90;;;;;;5051392;28;20041;-79
2023/12/03 08:01:31;;;;;;;20.92;10.50;;;-2.60;99.90;;;;;;5028318;28;20571;-80
2023/12/03 08:03:58;;;;;;;18.42;9.52;;;-2.60;99.90;;;;;;5052899;28;20053;-80
2023/12/03 08:06:25;;;;;;;20.02;12.10;;;-2.60;99.90;;;;;;5048713;28;20049;-82
2023/12/03 08:08:53;;;;;;;19.70;12.77;;;-2.60;99.90;;;;;;5030559;28;20073;-80
2023/12/03 08:11:20;;;;;;;19.35;12.68;;;-2.50;99.90;;;;;;5030535;28;20075;-80
2023/12/03 08:13:47;;;;;;;17.60;12.27;;;-2.50;99.90;;;;;;5048321;28;20103;-78
2023/12/03 08:16:14;;;;;;;19.45;12.05;;;-2.50;99.90;;;;;;5045625;28;20424;-80
2023/12/03 08:18:40;;;;;;;15.85;9.85;;;-2.50;99.90;;;;;;5047139;28;20085;-80
2023/12/03 08:21:09;;;;;;;16.75;9.43;;;-2.40;99.90;;;;;;5047740;28;20055;-82
2023/12/03 08:23:36;;;;;;;17.73;11.52;;;-2.40;99.90;;;;;;5052719;28;20049;-80
2023/12/03 08:26:04;;;;;;;17.08;10.43;;;-2.40;99.90;;;;;;5045277;28;20072;-80
2023/12/03 08:28:31;;;;;;;17.15;9.90;;;-2.40;99.90;;;;;;5029523;28;20045;-79
2023/12/03 08:30:58;;;;;;;13.40;8.60;;;-2.40;99.90;;;;;;5036959;28;20041;-81
2023/12/03 08:33:25;;;;;;;17.92;9.77;;;-2.30;99.90;;;;;;5046939;28;20128;-81
2023/12/03 08:35:52;;;;;;;21.38;10.30;;;-2.30;99.90;;;;;;5048984;28;20120;-82
2023/12/03 08:38:19;;;;;;;13.68;8.75;;;-2.30;99.90;;;;;;5046317;28;20098;-79
2023/12/03 08:40:45;;;;;;;14.93;9.50;;;-2.20;99.90;;;;;;5051692;28;20083;-79
2023/12/03 08:43:12;;;;;;;17.25;9.77;;;-2.20;99.90;;;;;;5030687;28;20049;-81
2023/12/03 08:45:39;;;;;;;14.55;9.48;;;-2.10;99.90;;;;;;5033760;28;20045;-82
2023/12/03 08:48:06;;;;;;;15.10;10.25;;;-2.10;99.90;;;;;;5035612;28;20401;-81
2023/12/03 08:50:32;;;;;;;14.27;9.30;;;-2.10;99.90;;;;;;5033270;28;20057;-82
2023/12/03 08:52:59;;;;;;;17.17;8.73;;;-2.10;99.90;;;;;;5047490;28;20049;-79
2023/12/03 08:55:26;;;;;;;13.88;8.93;;;-2.00;99.90;;;;;;5030926;28;20053;-81
2023/12/03 08:57:53;;;;;;;12.88;8.15;;;-2.00;99.90;;;;;;5047087;28;20048;-83
2023/12/03 09:00:19;;;;;;;16.05;8.75;;;-2.00;99.90;;;;;;5047329;28;20109;-81
2023/12/03 09:02:46;;;;;;;13.82;8.25;;;-1.90;99.90;;;;;;5049110;28;20068;-79
2023/12/03 09:05:13;;;;;;;15.63;9.27;;;-1.90;99.90;;;;;;5053179;28;20136;-82
2023/12/03 09:07:40;;;;;;;14.48;9.13;;;-1.90;99.90;;;;;;5055038;28;20132;-79
2023/12/03 09:10:07;;;;;;;19.35;10.63;;;-1.80;99.90;;;;;;5055573;28;20056;-78
2023/12/03 09:12:34;;;;;;;19.17;10.80;;;-1.80;99.90;;;;;;5053697;28;20398;-81
2023/12/03 09:15:01;;;;;;;16.77;10.68;;;-1.80;99.90;;;;;;5045172;28;20061;-79
2023/12/03 09:17:28;;;;;;;16.05;10.18;;;-1.70;99.90;;;;;;5051686;28;20048;-78
2023/12/03 09:19:55;;;;;;;17.17;9.82;;;-1.70;99.90;;;;;;5027499;28;20054;-79
2023/12/03 09:22:22;;;;;;;16.63;9.05;;;-1.70;99.90;;;;;;5049846;28;20049;-80
2023/12/03 09:24:48;;;;;;;17.50;10.63;;;-1.70;99.90;;;;;;5049996;28;20048;-80
2023/12/03 09:27:16;;;;;;;19.02;11.55;;;-1.60;99.90;;;;;;5046796;28;20049;-79
2023/12/03 09:29:42;;;;;;;20.23;11.50;;;-1.60;99.90;;;;;;5040651;28;20041;-79
2023/12/03 09:32:09;;;;;;;16.42;10.38;;;-1.50;99.90;;;;;;5047578;28;20094;-79
2023/12/03 09:34:36;;;;;;;16.85;10.23;;;-1.50;99.90;;;;;;5061207;28;20088;-81
2023/12/03 09:37:03;;;;;;;20.20;10.40;;;-1.50;99.90;;;;;;5058855;28;20045;-83
2023/12/03 09:39:29;;;;;;;16.52;10.00;;;-1.50;99.90;;;;;;5062907;28;20052;-79
2023/12/03 09:41:59;;;;;;;15.52;8.88;;;-1.50;99.90;;;;;;5056216;28;20060;-82
2023/12/03 09:44:33;;;;;;;15.43;9.70;;;-1.50;99.90;;;;;;5041032;28;20044;-82
2023/12/03 09:46:59;;;;;;;16.20;10.85;;;-1.50;99.90;;;;;;5054672;28;20049;-80
2023/12/03 09:49:28;;;;;;;15.13;10.23;;;-1.50;99.90;;;;;;5062665;28;20087;-79
2023/12/03 09:51:59;;;;;;;17.17;8.52;;;-1.50;99.90;;;;;;5058571;28;20104;-82
2023/12/03 09:54:26;;;;;;;12.35;8.13;;;-1.40;99.90;;;;;;5062092;28;20405;-78
2023/12/03 09:56:56;;;;;;;14.13;8.77;;;-1.40;99.90;;;;;;5034542;28;20041;-82
2023/12/03 09:59:24;;;;;;;15.60;9.20;;;-1.30;99.90;;;;;;5053166;28;20489;-82
2023/12/03 10:01:51;;;;;;;13.05;9.00;;;-1.30;99.90;;;;;;5030720;28;20405;-80
2023/12/03 10:04:18;;;;;;;16.38;10.02;;;-1.30;99.90;;;;;;5056615;28;20049;-82
2023/12/03 10:06:48;;;;;;;15.73;8.18;;;-1.20;99.90;;;;;;5055218;28;20423;-82
2023/12/03 10:09:14;;;;;;;16.83;10.20;;;-1.20;99.90;;;;;;5063346;28;20048;-78
2023/12/03 10:11:49;;;;;;;13.07;8.30;;;-1.20;99.90;;;;;;5043316;28;20562;-81
2023/12/03 10:14:17;;;;;;;14.48;9.38;;;-1.20;99.90;;;;;;5059798;28;20045;-81
2023/12/03 10:16:50;;;;;;;14.57;9.50;;;-1.10;99.90;;;;;;5058425;28;20049;-81
2023/12/03 10:19:27;;;;;;;15.05;9.88;;;-1.10;99.90;;;;;;5058762;28;20045;-82
2023/12/03 10:21:57;;;;;;;15.82;9.82;;;-1.10;99.90;;;;;;5046685;28;20068;-79
2023/12/03 10:24:24;;;;;;;14.60;8.77;;;-1.00;99.90;;;;;;5038472;28;20429;-81
2023/12/03 10:27:00;;;;;;;15.65;9.57;;;-1.00;99.90;;;;;;5061597;28;20049;-79
2023/12/03 10:29:27;;;;;;;21.05;13.10;;;-1.00;99.90;;;;;;5061595;28;20045;-80
2023/12/03 10:31:56;;;;;;;21.55;13.48;;;-0.90;99.90;;;;;;5025523;28;20045;-83
2023/12/03 10:34:24;;;;;;;18.52;11.13;;;-1.00;99.90;;;;;;5045434;28;20066;-81
2023/12/03 10:36:52;;;;;;;18.88;10.88;;;-1.00;99.90;;;;;;5046722;28;20054;-81
2023/12/03 10:39:19;;;;;;;14.85;9.70;;;-0.90;99.90;;;;;;5045687;28;20064;-81
2023/12/03 10:41:48;;;;;;;13.95;10.38;;;-0.90;99.90;;;;;;5044476;28;20057;-82
2023/12/03 10:44:23;;;;;;;18.77;10.90;;;-0.80;99.90;;;;;;5051054;28;20052;-82
2023/12/03 10:46:50;;;;;;;14.77;9.02;;;-0.80;99.90;;;;;;5042875;28;20418;-78
2023/12/03 10:49:20;;;;;;;16.92;9.82;;;-0.70;99.90;;;;;;5049144;28;20132;-82
2023/12/03 10:51:47;;;;;;;17.40;10.13;;;-0.70;99.90;;;;;;5046118;28;20431;-82
2023/12/03 10:54:14;;;;;;;16.70;9.73;;;-0.70;99.90;;;;;;5046257;28;20106;-81
2023/12/03 10:56:42;;;;;;;17.08;8.55;;;-0.70;99.90;;;;;;5045177;28;20554;-82
2023/12/03 10:59:11;;;;;;;13.88;8.52;;;-0.70;99.90;;;;;;5046742;28;20115;-80
2023/12/03 11:01:43;;;;;;;14.52;8.55;;;-0.70;99.90;;;;;;5049780;28;20182;-81
2023/12/03 11:04:45;;;;;;;17.13;9.50;;;-0.70;99.90;;;;;;5046656;28;20516;-80
2023/12/03 11:07:18;;;;;;;15.73;9.95;;;-0.60;99.90;;;;;;5047817;28;20057;-82
2023/12/03 11:09:46;;;;;;;14.55;9.40;;;-0.60;99.90;;;;;;5029204;28;20053;-80
2023/12/03 11:12:19;;;;;;;15.18;9.68;;;-0.60;99.90;;;;;;5046058;28;20274;-82
2023/12/03 11:14:46;;;;;;;14.02;8.95;;;-0.60;99.90;;;;;;5051302;28;20643;-80
2023/12/03 11:17:40;;;;;;;16.20;10.43;;;-0.60;99.90;;;;;;5051703;28;20132;-80
2023/12/03 11:20:14;;;;;;;15.43;9.35;;;-0.60;99.90;;;;;;5033187;28;20077;-80
2023/12/03 11:23:08;;;;;;;16.17;9.82;;;-0.60;99.90;;;;;;5048300;28;20059;-81
2023/12/03 11:25:55;;;;;;;11.82;8.50;;;-0.50;99.90;;;;;;5052931;28;20045;-81
2023/12/03 11:28:22;;;;;;;14.52;9.35;;;-0.50;99.90;;;;;;5010922;28;20431;-82
2023/12/03 11:30:51;;;;;;;12.43;8.52;;;-0.40;99.90;;;;;;5051042;28;20087;-79
2023/12/03 11:33:21;;;;;;;16.80;10.32;;;-0.40;99.90;;;;;;5050366;28;20065;-79
2023/12/03 11:35:50;;;;;;;14.27;9.23;;;-0.40;99.90;;;;;;5051334;28;20068;-82
2023/12/03 11:38:21;;;;;;;16.60;10.07;;;-0.40;99.90;;;;;;5054952;28;20057;-81
2023/12/03 11:40:49;;;;;;;14.50;8.98;;;-0.40;99.90;;;;;;5048676;28;20053;-80
2023/12/03 11:43:30;;;;;;;15.27;9.70;;;-0.30;99.90;;;;;;5047971;28;20060;-80
2023/12/03 11:45:57;;;;;;;14.07;8.95;;;-0.30;99.90;;;;;;5032256;28;20087;-80
2023/12/03 11:48:26;;;;;;;16.88;9.10;;;-0.30;99.90;;;;;;5046275;28;20049;-80
2023/12/03 11:50:54;;;;;;;14.70;8.77;;;-0.30;99.90;;;;;;5053772;28;20493;-81
2023/12/03 11:53:31;;;;;;;15.35;9.23;;;-0.20;99.90;;;;;;5051597;28;20087;-82
2023/12/03 11:55:57;;;;;;;12.65;8.50;;;-0.20;99.90;;;;;;5054958;28;20049;-82
2023/12/03 11:58:26;;;;;;;16.27;9.68;;;-0.20;99.90;;;;;;5048693;28;20051;-81
2023/12/03 12:00:52;;;;;;;14.43;9.15;;;-0.20;99.90;;;;;;5053895;28;20495;-82
2023/12/03 12:03:19;;;;;;;14.00;8.18;;;-0.20;99.90;;;;;;5047931;28;20073;-83
2023/12/03 12:05:48;;;;;;;15.63;9.35;;;-0.20;99.90;;;;;;5029873;28;20045;-81
2023/12/03 12:08:22;;;;;;;15.45;9.25;;;-0.20;99.90;;;;;;5033144;28;20135;-80
2023/12/03 12:10:53;;;;;;;15.10;9.77;;;-0.10;99.90;;;;;;5053276;28;20124;-82
2023/12/03 12:13:22;;;;;;;14.57;8.63;;;-0.10;99.90;;;;;;5040316;28;20052;-78
2023/12/03 12:15:50;;;;;;;16.90;10.18;;;-0.10;99.90;;;;;;5057007;28;20104;-79
2023/12/03 12:18:19;;;;;;;17.08;9.38;;;0.00;99.90;;;;;;5058161;28;20084;-82
2023/12/03 12:20:46;;;;;;;;;;;0.00;99.90;;;;;;5055611;28;20069;-79
2023/12/03 12:23:14;;;;;;;16.40;8.95;;;0.00;99.90;;;;;;5048241;28;20324;-80
2023/12/03 12:25:41;;;;;;;14.18;9.05;;;0.00;99.90;;;;;;5055821;28;20110;-79
2023/12/03 12:28:08;;;;;;;15.35;9.82;;;0.00;99.90;;;;;;5028504;28;20123;-81
2023/12/03 12:30:34;;;;;;;14.98;9.25;;;0.00;99.90;;;;;;5054112;28;20114;-82
2023/12/03 12:33:03;;;;;;;14.85;9.40;;;0.00;99.90;;;;;;5029572;28;20041;-81
2023/12/03 12:35:30;;;;;;;14.40;9.57;;;0.10;99.90;;;;;;5054562;28;20045;-82
2023/12/03 12:37:59;;;;;;;16.05;9.50;;;0.10;99.90;;;;;;5028260;28;20110;-79